Time;durP1;ratioP1;P1;durP2;ratioP2;P2;SDS_P1;SDS_P2;PMS_P1;PMS_P2;Temp;Humidity;BMP_temperature;BMP_pressure;BME280_temperature;BME280_humidity;BME280_pressure;Samples;Min_cycle;Max_cycle;Signal;HPM_P1;HPM_P2
2023/04/09 00:01:09;;;;;;;1999.90;999.90;;;8.20;99.90;;;;;;5012498;28;20261;-73
2023/04/09 00:03:36;;;;;;;1999.90;999.90;;;8.30;99.90;;;;;;5012911;28;20177;-73
2023/04/09 00:06:02;;;;;;;1999.90;999.90;;;7.90;99.90;;;;;;5012667;28;20406;-73
2023/04/09 00:08:28;;;;;;;1999.90;999.90;;;7.90;99.90;;;;;;5012881;28;20954;-73
2023/04/09 00:10:55;;;;;;;1999.90;999.90;;;7.80;99.90;;;;;;5012406;28;20480;-73
2023/04/09 00:13:21;;;;;;;1999.90;999.90;;;7.90;99.90;;;;;;5012532;28;20230;-73
2023/04/09 00:15:47;;;;;;;1999.90;999.90;;;7.90;99.90;;;;;;5012505;28;20858;-73
2023/04/09 00:18:13;;;;;;;1999.90;999.90;;;7.90;99.90;;;;;;5012370;28;20187;-74
2023/04/09 00:20:39;;;;;;;1999.90;999.90;;;7.90;99.90;;;;;;5012506;28;20205;-73
2023/04/09 00:23:04;;;;;;;1999.90;999.90;;;7.90;99.90;;;;;;5012109;28;20411;-73
2023/04/09 00:25:30;;;;;;;1999.90;999.90;;;7.80;99.90;;;;;;5012338;28;20489;-73
2023/04/09 00:27:56;;;;;;;1999.90;999.90;;;7.80;99.90;;;;;;5012369;28;20258;-73
2023/04/09 00:30:22;;;;;;;1999.90;999.90;;;7.80;99.90;;;;;;5012490;28;20178;-73
2023/04/09 00:32:48;;;;;;;1999.90;999.90;;;7.70;99.90;;;;;;5012047;28;20417;-73
2023/04/09 00:35:16;;;;;;;1999.90;999.90;;;7.70;99.90;;;;;;5012169;28;20205;-73
2023/04/09 00:37:42;;;;;;;1999.90;999.90;;;7.70;99.90;;;;;;5012111;28;20440;-73
2023/04/09 00:40:07;;;;;;;1999.90;999.90;;;7.60;99.90;;;;;;5012364;28;20408;-73
2023/04/09 00:42:34;;;;;;;1999.90;999.90;;;7.60;99.90;;;;;;5011922;28;20647;-74
2023/04/09 00:45:00;;;;;;;1999.90;999.90;;;7.50;99.90;;;;;;5012143;28;20417;-73
2023/04/09 00:47:29;;;;;;;1999.90;999.90;;;7.60;99.90;;;;;;5012019;28;20450;-73
2023/04/09 00:49:56;;;;;;;1999.90;999.90;;;7.60;99.90;;;;;;5012417;28;20919;-74
2023/04/09 00:52:23;;;;;;;1999.90;999.90;;;7.60;99.90;;;;;;5011781;28;20414;-73
2023/04/09 00:54:50;;;;;;;1999.90;999.90;;;7.50;99.90;;;;;;5012106;28;20455;-73
2023/04/09 00:57:16;;;;;;;1999.90;999.90;;;7.40;99.90;;;;;;5012030;28;20428;-73
2023/04/09 00:59:45;;;;;;;1999.90;999.90;;;7.30;99.90;;;;;;5013711;28;20892;-72
2023/04/09 01:02:11;;;;;;;1999.90;999.90;;;7.20;99.90;;;;;;5015871;28;20415;-73
2023/04/09 01:04:40;;;;;;;1999.90;999.90;;;7.20;99.90;;;;;;5016021;28;20435;-73
2023/04/09 01:07:19;;;;;;;1999.90;999.90;;;7.10;99.90;;;;;;5015763;28;20432;-73
2023/04/09 01:09:58;;;;;;;1999.90;999.90;;;7.10;99.90;;;;;;5015916;28;20457;-73
2023/04/09 01:12:41;;;;;;;1999.90;999.90;;;7.10;99.90;;;;;;5015545;28;20918;-72
2023/04/09 01:15:17;;;;;;;1999.90;999.90;;;7.00;99.90;;;;;;5015796;28;20813;-72
2023/04/09 01:17:48;;;;;;;1999.90;999.90;;;7.00;99.90;;;;;;5015661;28;20411;-72
2023/04/09 01:20:21;;;;;;;1999.90;999.90;;;7.00;99.90;;;;;;5015645;28;20411;-72
2023/04/09 01:23:02;;;;;;;1999.90;999.90;;;7.00;99.90;;;;;;5015369;28;20397;-72
2023/04/09 01:25:52;;;;;;;1999.90;999.90;;;7.00;99.90;;;;;;5015578;28;20409;-73
2023/04/09 01:28:30;;;;;;;1999.90;999.90;;;7.10;99.90;;;;;;5015500;28;20925;-73
2023/04/09 01:31:10;;;;;;;1999.90;999.90;;;7.00;99.90;;;;;;5015334;28;20422;-71
2023/04/09 01:33:37;;;;;;;1999.90;999.90;;;7.00;99.90;;;;;;5015453;28;20450;-73
2023/04/09 01:36:05;;;;;;;1999.90;999.90;;;7.00;99.90;;;;;;5015282;28;20456;-73
2023/04/09 01:38:32;;;;;;;1999.90;999.90;;;7.10;99.90;;;;;;5015168;28;20425;-72
2023/04/09 01:41:00;;;;;;;1999.90;999.90;;;7.00;99.90;;;;;;5015095;28;20842;-73
2023/04/09 01:43:26;;;;;;;1999.90;999.90;;;6.90;99.90;;;;;;5015230;28;20458;-72
2023/04/09 01:45:53;;;;;;;1999.90;999.90;;;7.00;99.90;;;;;;5015358;28;20416;-72
2023/04/09 01:48:20;;;;;;;1999.90;999.90;;;7.00;99.90;;;;;;5015007;28;20452;-73
2023/04/09 01:50:46;;;;;;;1999.90;999.90;;;7.00;99.90;;;;;;5015076;28;20442;-72
2023/04/09 01:53:12;;;;;;;1999.90;999.90;;;7.00;99.90;;;;;;5014727;28;20447;-73
2023/04/09 01:55:37;;;;;;;1999.90;999.90;;;7.00;99.90;;;;;;5014945;28;20460;-73
2023/04/09 01:58:03;;;;;;;1999.90;999.90;;;7.00;99.90;;;;;;5015080;28;20261;-72
2023/04/09 02:00:38;;;;;;;1999.90;999.90;;;7.00;99.90;;;;;;5014981;28;20674;-73
2023/04/09 02:03:23;;;;;;;1999.90;999.90;;;7.10;99.90;;;;;;5014612;28;20165;-72
2023/04/09 02:06:27;;;;;;;1999.90;999.90;;;7.00;99.90;;;;;;5014888;28;20431;-73
2023/04/09 02:08:55;;;;;;;1999.90;999.90;;;7.00;99.90;;;;;;5014895;28;20913;-73
2023/04/09 02:11:25;;;;;;;1999.90;999.90;;;7.00;99.90;;;;;;5013580;28;20412;-73
2023/04/09 02:13:53;;;;;;;1999.90;999.90;;;6.90;99.90;;;;;;5014660;28;20411;-72
2023/04/09 02:16:19;;;;;;;1999.90;999.90;;;6.90;99.90;;;;;;5014629;28;20466;-72
2023/04/09 02:18:45;;;;;;;1999.90;999.90;;;6.80;99.90;;;;;;5014523;28;20987;-73
2023/04/09 02:21:12;;;;;;;1999.90;999.90;;;6.80;99.90;;;;;;5014312;28;20499;-72
2023/04/09 02:23:38;;;;;;;1999.90;999.90;;;6.80;99.90;;;;;;5014468;28;20181;-71
2023/04/09 02:26:03;;;;;;;1999.90;999.90;;;6.80;99.90;;;;;;5014430;28;20469;-72
2023/04/09 02:28:29;;;;;;;1999.90;999.90;;;6.80;99.90;;;;;;5014310;28;20280;-72
2023/04/09 02:30:55;;;;;;;1999.90;999.90;;;6.90;99.90;;;;;;5014343;28;20243;-72
2023/04/09 02:33:20;;;;;;;1999.90;999.90;;;6.60;99.90;;;;;;5014274;28;20288;-72
2023/04/09 02:35:46;;;;;;;1999.90;999.90;;;6.40;99.90;;;;;;5014204;28;20571;-71
2023/04/09 02:38:13;;;;;;;1999.90;999.90;;;6.40;99.90;;;;;;5014259;28;20284;-72
2023/04/09 02:40:42;;;;;;;1999.90;999.90;;;6.30;99.90;;;;;;5014165;28;20619;-72
2023/04/09 02:43:09;;;;;;;1999.90;999.90;;;6.30;99.90;;;;;;5013852;28;20396;-72
2023/04/09 02:45:34;;;;;;;1999.90;999.90;;;6.30;99.90;;;;;;5014303;28;20415;-71
2023/04/09 02:48:00;;;;;;;1999.90;999.90;;;6.30;99.90;;;;;;5013813;28;20462;-72
2023/04/09 02:50:26;;;;;;;1999.90;999.90;;;6.30;99.90;;;;;;5014024;28;20411;-72
2023/04/09 02:52:51;;;;;;;1999.90;999.90;;;6.30;99.90;;;;;;5013727;28;20177;-72
2023/04/09 02:55:19;;;;;;;1999.90;999.90;;;6.20;99.90;;;;;;5013843;28;20531;-72
2023/04/09 02:57:45;;;;;;;1999.90;999.90;;;6.10;99.90;;;;;;5013658;28;20197;-72
2023/04/09 03:00:11;;;;;;;1999.90;999.90;;;6.00;99.90;;;;;;5013872;28;20458;-73
2023/04/09 03:02:37;;;;;;;1999.90;999.90;;;6.00;99.90;;;;;;5013618;28;20184;-72
2023/04/09 03:05:03;;;;;;;1999.90;999.90;;;6.00;99.90;;;;;;5013841;28;20993;-72
2023/04/09 03:07:28;;;;;;;1999.90;999.90;;;6.00;99.90;;;;;;5013649;28;20560;-72
2023/04/09 03:09:54;;;;;;;1999.90;999.90;;;6.00;99.90;;;;;;5013656;28;20416;-72
2023/04/09 03:12:19;;;;;;;1999.90;999.90;;;5.90;99.90;;;;;;5013331;28;20177;-72
2023/04/09 03:14:45;;;;;;;1999.90;999.90;;;5.90;99.90;;;;;;5013464;28;20275;-71
2023/04/09 03:17:11;;;;;;;1999.90;999.90;;;5.90;99.90;;;;;;5013341;28;20239;-72
2023/04/09 03:19:36;;;;;;;1999.90;999.90;;;5.80;99.90;;;;;;5013609;28;20169;-72
2023/04/09 03:22:02;;;;;;;1999.90;999.90;;;5.80;99.90;;;;;;5013073;28;20161;-72
2023/04/09 03:24:27;;;;;;;1999.90;999.90;;;5.80;99.90;;;;;;5014021;28;20264;-72
2023/04/09 03:26:53;;;;;;;1999.90;999.90;;;5.80;99.90;;;;;;5013475;28;20192;-72
2023/04/09 03:29:19;;;;;;;1999.90;999.90;;;5.80;99.90;;;;;;5013612;28;20230;-72
2023/04/09 03:31:45;;;;;;;1999.90;999.90;;;5.80;99.90;;;;;;5013408;28;20248;-72
2023/04/09 03:34:10;;;;;;;1999.90;999.90;;;5.80;99.90;;;;;;5013525;28;20494;-72
2023/04/09 03:36:36;;;;;;;1999.90;999.90;;;5.90;99.90;;;;;;5013370;28;20168;-72
2023/04/09 03:39:01;;;;;;;1999.90;999.90;;;5.70;99.90;;;;;;5013408;28;20235;-72
2023/04/09 03:41:27;;;;;;;1999.90;999.90;;;5.70;99.90;;;;;;5013105;28;20544;-72
2023/04/09 03:43:53;;;;;;;1999.90;999.90;;;5.70;99.90;;;;;;5013490;28;20172;-72
2023/04/09 03:46:18;;;;;;;1999.90;999.90;;;5.70;99.90;;;;;;5013030;28;20180;-73
2023/04/09 03:48:44;;;;;;;1999.90;999.90;;;5.70;99.90;;;;;;5013271;28;20319;-72
2023/04/09 03:51:12;;;;;;;1999.90;999.90;;;5.70;99.90;;;;;;5012728;28;20184;-72
2023/04/09 03:53:37;;;;;;;1999.90;999.90;;;5.70;99.90;;;;;;5012862;28;20415;-73
2023/04/09 03:56:03;;;;;;;1999.90;999.90;;;5.60;99.90;;;;;;5012715;28;20451;-72
2023/04/09 03:58:29;;;;;;;1999.90;999.90;;;5.70;99.90;;;;;;5012721;28;20193;-72
2023/04/09 04:00:54;;;;;;;1999.90;999.90;;;5.60;99.90;;;;;;5012350;28;20169;-72
2023/04/09 04:03:20;;;;;;;1999.90;999.90;;;5.60;99.90;;;;;;5012692;28;20169;-73
2023/04/09 04:05:45;;;;;;;1999.90;999.90;;;5.70;99.90;;;;;;5012632;28;20169;-73
2023/04/09 04:08:11;;;;;;;1999.90;999.90;;;5.60;99.90;;;;;;5012585;28;20195;-72
2023/04/09 04:10:37;;;;;;;1999.90;999.90;;;5.60;99.90;;;;;;5012499;28;20657;-72
2023/04/09 04:13:02;;;;;;;1999.90;999.90;;;5.50;99.90;;;;;;5012370;28;20252;-72
2023/04/09 04:15:28;;;;;;;1999.90;999.90;;;5.50;99.90;;;;;;5012472;28;20196;-72
2023/04/09 04:17:54;;;;;;;1999.90;999.90;;;5.50;99.90;;;;;;5012404;28;20185;-72
2023/04/09 04:20:20;;;;;;;1999.90;999.90;;;5.60;99.90;;;;;;5012574;28;20165;-72
2023/04/09 04:22:45;;;;;;;1999.90;999.90;;;5.60;99.90;;;;;;5012205;28;20856;-72
2023/04/09 04:25:11;;;;;;;1999.90;999.90;;;5.60;99.90;;;;;;5012346;28;20697;-72
2023/04/09 04:27:40;;;;;;;1999.90;999.90;;;5.50;99.90;;;;;;5012526;28;20274;-72
2023/04/09 04:30:06;;;;;;;1999.90;999.90;;;5.50;99.90;;;;;;5012307;28;20172;-72
2023/04/09 04:32:31;;;;;;;1999.90;999.90;;;5.40;99.90;;;;;;5012006;28;20798;-73
2023/04/09 04:34:57;;;;;;;1999.90;999.90;;;5.40;99.90;;;;;;5011773;28;20444;-71
2023/04/09 04:37:24;;;;;;;1999.90;999.90;;;5.40;99.90;;;;;;5012353;28;20595;-73
2023/04/09 04:39:49;;;;;;;1999.90;999.90;;;5.40;99.90;;;;;;5012184;28;20173;-72
2023/04/09 04:42:16;;;;;;;1999.90;999.90;;;5.40;99.90;;;;;;5011942;28;20442;-72
2023/04/09 04:44:42;;;;;;;1999.90;999.90;;;5.50;99.90;;;;;;5012334;28;20177;-72
2023/04/09 04:47:07;;;;;;;1999.90;999.90;;;5.50;99.90;;;;;;5011974;28;20486;-72
2023/04/09 04:49:33;;;;;;;1999.90;999.90;;;5.40;99.90;;;;;;5012309;28;20419;-72
2023/04/09 04:51:59;;;;;;;1999.90;999.90;;;5.50;99.90;;;;;;5011851;28;20184;-73
2023/04/09 04:54:24;;;;;;;1999.90;999.90;;;5.50;99.90;;;;;;5012028;28;20228;-73
2023/04/09 04:56:50;;;;;;;1999.90;999.90;;;5.50;99.90;;;;;;5012172;28;20604;-72
2023/04/09 04:59:15;;;;;;;1999.90;999.90;;;5.50;99.90;;;;;;5012144;28;20184;-73
2023/04/09 05:01:41;;;;;;;1999.90;999.90;;;5.50;99.90;;;;;;5011674;28;20196;-73
2023/04/09 05:04:06;;;;;;;1999.90;999.90;;;5.50;99.90;;;;;;5012044;28;20567;-73
2023/04/09 05:06:32;;;;;;;1999.90;999.90;;;5.50;99.90;;;;;;5011936;28;20173;-72
2023/04/09 05:08:58;;;;;;;1999.90;999.90;;;5.50;99.90;;;;;;5011902;28;20185;-72
2023/04/09 05:11:27;;;;;;;1999.90;999.90;;;5.50;99.90;;;;;;5011682;28;20529;-73
2023/04/09 05:13:52;;;;;;;1999.90;999.90;;;5.50;99.90;;;;;;5011922;28;20537;-72
2023/04/09 05:16:19;;;;;;;1999.90;999.90;;;5.40;99.90;;;;;;5011837;28;20456;-73
2023/04/09 05:18:46;;;;;;;1999.90;999.90;;;5.40;99.90;;;;;;5011833;28;20685;-72
2023/04/09 05:21:11;;;;;;;1999.90;999.90;;;5.40;99.90;;;;;;5011653;28;20446;-73
2023/04/09 05:23:37;;;;;;;1999.90;999.90;;;5.40;99.90;;;;;;5011879;28;20486;-73
2023/04/09 05:26:03;;;;;;;1999.90;999.90;;;5.40;99.90;;;;;;5011817;28;20708;-72
2023/04/09 05:28:29;;;;;;;1999.90;999.90;;;5.40;99.90;;;;;;5011760;28;20200;-73
2023/04/09 05:30:54;;;;;;;1999.90;999.90;;;5.30;99.90;;;;;;5011740;28;20260;-73
2023/04/09 05:33:20;;;;;;;1999.90;999.90;;;5.30;99.90;;;;;;5011725;28;20575;-72
2023/04/09 05:35:46;;;;;;;1999.90;999.90;;;5.30;99.90;;;;;;5011601;28;20215;-73
2023/04/09 05:38:12;;;;;;;1999.90;999.90;;;5.40;99.90;;;;;;5011632;28;20193;-73
2023/04/09 05:40:38;;;;;;;1999.90;999.90;;;5.40;99.90;;;;;;5011679;28;20165;-73
2023/04/09 05:43:04;;;;;;;1999.90;999.90;;;5.30;99.90;;;;;;5011543;28;20411;-73
2023/04/09 05:45:30;;;;;;;1999.90;999.90;;;5.40;99.90;;;;;;5011809;28;20415;-73
2023/04/09 05:47:56;;;;;;;1999.90;999.90;;;5.40;99.90;;;;;;5014791;28;20451;-72
2023/04/09 05:50:22;;;;;;;1999.90;999.90;;;5.40;99.90;;;;;;5015161;28;20223;-72
2023/04/09 05:52:47;;;;;;;1999.90;999.90;;;5.50;99.90;;;;;;5014840;28;20228;-72
2023/04/09 05:55:13;;;;;;;1999.90;999.90;;;5.60;99.90;;;;;;5015227;28;20455;-72
2023/04/09 05:57:38;;;;;;;1999.90;999.90;;;5.60;99.90;;;;;;5015013;28;20228;-72
2023/04/09 06:00:05;;;;;;;1999.90;999.90;;;5.70;99.90;;;;;;5014766;28;20219;-72
2023/04/09 06:02:30;;;;;;;1999.90;999.90;;;5.70;99.90;;;;;;5014612;28;20180;-72
2023/04/09 06:04:56;;;;;;;1999.90;999.90;;;5.70;99.90;;;;;;5014974;28;20491;-72
2023/04/09 06:07:21;;;;;;;1999.90;999.90;;;5.70;99.90;;;;;;5014749;28;20189;-73
2023/04/09 06:09:47;;;;;;;1999.90;999.90;;;5.60;99.90;;;;;;5014744;28;20725;-72
2023/04/09 06:12:13;;;;;;;1999.90;999.90;;;5.60;99.90;;;;;;5014598;28;20173;-72
2023/04/09 06:14:39;;;;;;;1999.90;999.90;;;5.70;99.90;;;;;;5014563;28;20228;-72
2023/04/09 06:17:04;;;;;;;1999.90;999.90;;;5.70;99.90;;;;;;5014570;28;20201;-72
2023/04/09 06:19:30;;;;;;;1999.90;999.90;;;5.70;99.90;;;;;;5014664;28;20259;-72
2023/04/09 06:21:56;;;;;;;1999.90;999.90;;;5.70;99.90;;;;;;5014207;28;20248;-73
2023/04/09 06:24:21;;;;;;;1999.90;999.90;;;5.70;99.90;;;;;;5014556;28;20165;-72
2023/04/09 06:26:47;;;;;;;1999.90;999.90;;;5.80;99.90;;;;;;5014344;28;20200;-72
2023/04/09 06:29:13;;;;;;;1999.90;999.90;;;5.90;99.90;;;;;;5014356;28;20409;-72
2023/04/09 06:31:38;;;;;;;1999.90;999.90;;;6.00;99.90;;;;;;5014261;28;20267;-71
2023/04/09 06:34:04;;;;;;;1999.90;999.90;;;6.00;99.90;;;;;;5014316;28;20586;-72
2023/04/09 06:36:29;;;;;;;1999.90;999.90;;;6.20;99.90;;;;;;5014117;28;20201;-72
2023/04/09 06:38:55;;;;;;;1999.90;999.90;;;6.30;99.90;;;;;;5014443;28;20173;-72
2023/04/09 06:41:25;;;;;;;1999.90;999.90;;;6.40;99.90;;;;;;5014059;28;20646;-72
2023/04/09 06:43:51;;;;;;;1999.90;999.90;;;6.50;99.90;;;;;;5014159;28;20198;-72
2023/04/09 06:46:18;;;;;;;1999.90;999.90;;;6.60;99.90;;;;;;5014104;28;20408;-72
2023/04/09 06:48:45;;;;;;;1999.90;999.90;;;6.70;99.90;;;;;;5013835;28;20953;-73
2023/04/09 06:51:11;;;;;;;1999.90;999.90;;;6.80;99.90;;;;;;5013655;28;21216;-73
2023/04/09 06:53:37;;;;;;;1999.90;999.90;;;6.90;99.90;;;;;;5013977;28;20434;-72
2023/04/09 06:56:03;;;;;;;1999.90;999.90;;;7.10;99.90;;;;;;5013792;28;20559;-71
2023/04/09 06:58:29;;;;;;;1999.90;999.90;;;7.20;99.90;;;;;;5013356;28;20532;-73
2023/04/09 07:00:55;;;;;;;1999.90;999.90;;;7.20;99.90;;;;;;5013565;28;20420;-72
2023/04/09 07:03:20;;;;;;;1999.90;999.90;;;7.30;99.90;;;;;;5013712;28;20180;-73
2023/04/09 07:05:47;;;;;;;1999.90;999.90;;;7.40;99.90;;;;;;5013765;28;20412;-73
2023/04/09 07:08:13;;;;;;;1999.90;999.90;;;7.30;99.90;;;;;;5013604;28;20280;-72
2023/04/09 07:10:39;;;;;;;1999.90;999.90;;;7.40;99.90;;;;;;5013612;28;20973;-72
2023/04/09 07:13:04;;;;;;;1999.90;999.90;;;7.50;99.90;;;;;;5013331;28;20504;-73
2023/04/09 07:15:30;;;;;;;1999.90;999.90;;;7.50;99.90;;;;;;5013446;28;20445;-73
2023/04/09 07:17:56;;;;;;;1999.90;999.90;;;7.60;99.90;;;;;;5013877;28;20188;-73
2023/04/09 07:20:22;;;;;;;1999.90;999.90;;;7.60;99.90;;;;;;5014373;28;20568;-72
2023/04/09 07:22:48;;;;;;;1999.90;999.90;;;7.60;99.90;;;;;;5013893;28;20400;-72
2023/04/09 07:25:14;;;;;;;1999.90;999.90;;;7.70;99.90;;;;;;5014398;28;20840;-72
2023/04/09 07:27:41;;;;;;;1999.90;999.90;;;7.90;99.90;;;;;;5014247;28;20216;-73
2023/04/09 07:30:07;;;;;;;1999.90;999.90;;;8.10;99.90;;;;;;5015560;28;20621;-73
2023/04/09 07:32:33;;;;;;;1999.90;999.90;;;8.20;99.90;;;;;;5013939;28;20398;-73
2023/04/09 07:34:58;;;;;;;1999.90;999.90;;;8.30;99.90;;;;;;5014064;28;20506;-73
2023/04/09 07:37:25;;;;;;;1999.90;999.90;;;8.40;99.90;;;;;;5014110;28;20190;-72
2023/04/09 07:39:51;;;;;;;1999.90;999.90;;;8.50;99.90;;;;;;5014055;28;20163;-72
2023/04/09 07:42:17;;;;;;;1999.90;999.90;;;8.60;99.90;;;;;;5012968;28;20419;-72
2023/04/09 07:44:42;;;;;;;1999.90;999.90;;;8.60;99.90;;;;;;5013653;28;20655;-72
2023/04/09 07:47:09;;;;;;;1999.90;999.90;;;8.70;99.90;;;;;;5013235;28;20237;-73
2023/04/09 07:49:36;;;;;;;1999.90;999.90;;;8.80;99.90;;;;;;5019800;28;20179;-70
2023/04/09 07:52:02;;;;;;;1999.90;999.90;;;8.90;99.90;;;;;;5013751;28;20424;-72
2023/04/09 07:54:28;;;;;;;1999.90;999.90;;;9.00;99.90;;;;;;5013587;28;20491;-73
2023/04/09 07:56:55;;;;;;;1999.90;999.90;;;9.10;99.90;;;;;;5013400;28;20820;-72
2023/04/09 07:59:21;;;;;;;1999.90;999.90;;;9.50;99.90;;;;;;5015451;28;20429;-73
2023/04/09 08:01:46;;;;;;;1999.90;999.90;;;9.40;99.90;;;;;;5022023;28;20416;-71
2023/04/09 08:04:12;;;;;;;1999.90;999.90;;;9.40;99.90;;;;;;5024822;28;20258;-72
2023/04/09 08:06:38;;;;;;;1999.90;999.90;;;9.60;99.90;;;;;;5033989;28;20638;-73
2023/04/09 08:09:03;;;;;;;1999.90;999.90;;;9.90;99.90;;;;;;5033179;28;20438;-72
2023/04/09 08:11:29;;;;;;;1999.90;999.90;;;9.80;99.90;;;;;;5033860;28;20206;-73
2023/04/09 08:13:56;;;;;;;1999.90;999.90;;;10.10;99.90;;;;;;5034079;28;20167;-73
2023/04/09 08:16:23;;;;;;;1999.90;999.90;;;10.10;99.90;;;;;;5034357;28;20610;-73
2023/04/09 08:18:49;;;;;;;1999.90;999.90;;;10.10;99.90;;;;;;5034459;28;20462;-73
2023/04/09 08:21:15;;;;;;;1999.90;999.90;;;10.20;99.90;;;;;;5034067;28;20426;-73
2023/04/09 08:23:41;;;;;;;1999.90;999.90;;;10.30;99.90;;;;;;5034892;28;20461;-73
2023/04/09 08:26:06;;;;;;;1999.90;999.90;;;10.60;99.90;;;;;;5034441;28;20187;-73
2023/04/09 08:28:32;;;;;;;1999.90;999.90;;;10.50;99.90;;;;;;5034593;28;20192;-73
2023/04/09 08:30:57;;;;;;;1999.90;999.90;;;10.50;99.90;;;;;;5034858;28;20169;-73
2023/04/09 08:33:23;;;;;;;1999.90;999.90;;;10.60;99.90;;;;;;5035146;28;20237;-73
2023/04/09 08:35:49;;;;;;;1999.90;999.90;;;10.70;99.90;;;;;;5033827;28;20568;-73
2023/04/09 08:38:15;;;;;;;1999.90;999.90;;;10.70;99.90;;;;;;5033432;28;20610;-72
2023/04/09 08:40:40;;;;;;;1999.90;999.90;;;10.90;99.90;;;;;;5028835;28;20176;-73
2023/04/09 08:43:09;;;;;;;1999.90;999.90;;;10.90;99.90;;;;;;5008058;28;20975;-73
2023/04/09 08:45:35;;;;;;;1999.90;999.90;;;11.00;99.90;;;;;;5009245;28;20242;-72
2023/04/09 08:48:02;;;;;;;1999.90;999.90;;;11.20;99.90;;;;;;5008146;28;20440;-71
2023/04/09 08:50:35;;;;;;;1999.90;999.90;;;11.30;99.90;;;;;;5007623;28;20420;-70
2023/04/09 08:53:06;;;;;;;1999.90;999.90;;;11.40;99.90;;;;;;5007220;28;20433;-71
2023/04/09 08:55:36;;;;;;;1999.90;999.90;;;11.50;99.90;;;;;;5007702;28;20455;-73
2023/04/09 08:58:09;;;;;;;1999.90;999.90;;;11.60;99.90;;;;;;5008295;28;20424;-71
2023/04/09 09:00:35;;;;;;;1999.90;999.90;;;11.70;99.90;;;;;;5008167;28;20415;-73
2023/04/09 09:03:08;;;;;;;1999.90;999.90;;;11.70;99.90;;;;;;5007256;28;20839;-72
2023/04/09 09:05:38;;;;;;;1999.90;999.90;;;11.80;99.90;;;;;;5007323;28;20416;-72
2023/04/09 09:08:08;;;;;;;1999.90;999.90;;;11.90;99.90;;;;;;5007770;28;20503;-72
2023/04/09 09:10:40;;;;;;;1999.90;999.90;;;11.90;99.90;;;;;;5004202;28;20484;-71
2023/04/09 09:13:35;;;;;;;1999.90;999.90;;;12.00;99.90;;;;;;5005328;28;20422;-70
2023/04/09 09:16:15;;;;;;;1999.90;999.90;;;12.20;99.90;;;;;;4998332;28;20495;-70
2023/04/09 09:18:43;;;;;;;1999.90;999.90;;;12.30;99.90;;;;;;5006735;28;20435;-70
2023/04/09 09:21:14;;;;;;;1999.90;999.90;;;12.40;99.90;;;;;;5009553;28;20443;-72
2023/04/09 09:23:41;;;;;;;1999.90;999.90;;;12.60;99.90;;;;;;5011518;28;20410;-71
2023/04/09 09:26:12;;;;;;;1999.90;999.90;;;12.70;99.90;;;;;;5010232;28;20529;-70
2023/04/09 09:28:37;;;;;;;1999.90;999.90;;;12.80;99.90;;;;;;5010742;28;20916;-71
2023/04/09 09:31:10;;;;;;;1999.90;999.90;;;12.90;99.90;;;;;;5011078;28;20465;-71
2023/04/09 09:33:37;;;;;;;1999.90;999.90;;;13.00;99.90;;;;;;5011007;28;20197;-70
2023/04/09 09:36:06;;;;;;;1999.90;999.90;;;13.10;99.90;;;;;;4993403;28;20458;-70
2023/04/09 09:38:32;;;;;;;1999.90;999.90;;;13.10;99.90;;;;;;5009413;28;20446;-71
2023/04/09 09:40:58;;;;;;;1999.90;999.90;;;13.10;99.90;;;;;;5010896;28;20421;-72
2023/04/09 09:43:24;;;;;;;1999.90;999.90;;;13.20;99.90;;;;;;5010670;28;20188;-70
2023/04/09 09:45:50;;;;;;;1999.90;999.90;;;13.30;99.90;;;;;;5010663;28;20178;-71
2023/04/09 09:48:15;;;;;;;1999.90;999.90;;;13.20;99.90;;;;;;5010523;28;20514;-70
2023/04/09 09:50:41;;;;;;;1999.90;999.90;;;13.20;99.90;;;;;;5010501;28;20492;-70
2023/04/09 09:53:09;;;;;;;1999.90;999.90;;;13.30;99.90;;;;;;5010399;28;20191;-72
2023/04/09 09:55:40;;;;;;;1999.90;999.90;;;13.40;99.90;;;;;;5010669;28;21189;-71
2023/04/09 09:58:15;;;;;;;1999.90;999.90;;;13.50;99.90;;;;;;5010689;28;20529;-70
2023/04/09 10:00:42;;;;;;;1999.90;999.90;;;13.50;99.90;;;;;;5010942;28;20434;-70
2023/04/09 10:03:22;;;;;;;1999.90;999.90;;;13.60;99.90;;;;;;5010409;28;20442;-70
2023/04/09 10:05:49;;;;;;;1999.90;999.90;;;13.70;99.90;;;;;;5010295;28;20486;-69
2023/04/09 10:08:16;;;;;;;1999.90;999.90;;;13.80;99.90;;;;;;5010850;28;20537;-69
2023/04/09 10:10:42;;;;;;;1999.90;999.90;;;13.90;99.90;;;;;;5010749;28;20450;-70
2023/04/09 10:13:33;;;;;;;1999.90;999.90;;;13.90;99.90;;;;;;5009949;28;20427;-70
2023/04/09 10:16:00;;;;;;;1999.90;999.90;;;14.10;99.90;;;;;;5010698;28;20987;-69
2023/04/09 10:18:26;;;;;;;1999.90;999.90;;;14.20;99.90;;;;;;5010092;28;20464;-70
2023/04/09 10:20:52;;;;;;;1999.90;999.90;;;14.30;99.90;;;;;;5010741;28;20410;-70
2023/04/09 10:23:36;;;;;;;1999.90;999.90;;;14.30;99.90;;;;;;5015779;28;20972;-73
2023/04/09 10:26:03;;;;;;;1999.90;999.90;;;14.30;99.90;;;;;;5016974;28;20175;-71
2023/04/09 10:28:29;;;;;;;1999.90;999.90;;;14.30;99.90;;;;;;5017110;28;21028;-71
2023/04/09 10:30:54;;;;;;;1999.90;999.90;;;14.50;99.90;;;;;;5017128;28;20444;-71
2023/04/09 10:33:25;;;;;;;1999.90;999.90;;;14.50;99.90;;;;;;5015990;28;20502;-71
2023/04/09 10:35:53;;;;;;;1999.90;999.90;;;14.60;99.90;;;;;;5016010;28;20202;-71
2023/04/09 10:38:36;;;;;;;1999.90;999.90;;;14.90;99.90;;;;;;5014097;28;20420;-72
2023/04/09 10:41:17;;;;;;;1999.90;999.90;;;15.00;99.90;;;;;;5014144;28;20404;-71
2023/04/09 10:43:45;;;;;;;1999.90;999.90;;;15.20;99.90;;;;;;5014293;28;20833;-71
2023/04/09 10:46:28;;;;;;;1999.90;999.90;;;15.30;99.60;;;;;;5014135;28;20834;-72
2023/04/09 10:49:26;;;;;;;1999.90;999.90;;;15.20;98.90;;;;;;5014126;28;20985;-71
2023/04/09 10:52:06;;;;;;;1999.90;999.90;;;15.00;98.70;;;;;;4991473;28;20898;-72
2023/04/09 10:54:33;;;;;;;1999.90;999.90;;;14.90;99.30;;;;;;5014026;28;20498;-71
2023/04/09 10:57:21;;;;;;;1999.90;999.90;;;15.00;96.00;;;;;;5014006;28;20435;-71
2023/04/09 10:59:51;;;;;;;1999.90;999.90;;;15.00;98.10;;;;;;5013935;28;20171;-72
2023/04/09 11:02:37;;;;;;;1999.90;999.90;;;15.10;97.70;;;;;;5013625;28;20510;-72
2023/04/09 11:05:18;;;;;;;1999.90;999.90;;;15.30;97.80;;;;;;5013970;28;20418;-74
2023/04/09 11:07:48;;;;;;;1999.90;999.90;;;15.20;96.50;;;;;;5013863;28;20458;-73
2023/04/09 11:10:14;;;;;;;1999.90;999.90;;;15.40;93.20;;;;;;5013887;28;20413;-73
2023/04/09 11:12:40;;;;;;;1999.90;999.90;;;15.30;93.40;;;;;;5013450;28;20419;-73
2023/04/09 11:15:14;;;;;;;1999.90;999.90;;;15.40;95.40;;;;;;5014642;28;20197;-73
2023/04/09 11:17:39;;;;;;;1999.90;999.90;;;15.50;97.70;;;;;;5015323;28;20425;-73
2023/04/09 11:20:06;;;;;;;1999.90;999.90;;;15.50;98.00;;;;;;5015255;28;20773;-73
2023/04/09 11:22:32;;;;;;;1999.90;999.90;;;15.60;83.20;;;;;;5014933;28;20223;-73
2023/04/09 11:24:58;;;;;;;1999.90;999.90;;;15.70;95.10;;;;;;5015751;28;20402;-73
2023/04/09 11:27:23;;;;;;;1999.90;999.90;;;15.70;84.30;;;;;;5015861;28;20909;-73
2023/04/09 11:29:56;;;;;;;1999.90;999.90;;;15.60;86.80;;;;;;5016011;28;20173;-73
2023/04/09 11:32:29;;;;;;;1999.90;999.90;;;15.60;91.10;;;;;;5013322;28;20173;-73
2023/04/09 11:34:55;;;;;;;1999.90;999.90;;;15.50;90.40;;;;;;5014765;28;20447;-73
2023/04/09 11:37:21;;;;;;;1999.90;999.90;;;15.40;90.00;;;;;;5015136;28;20813;-72
2023/04/09 11:39:47;;;;;;;1999.90;999.90;;;15.50;94.40;;;;;;5014359;28;20417;-71
2023/04/09 11:42:16;;;;;;;1999.90;999.90;;;15.60;95.40;;;;;;5013700;28;20169;-71
2023/04/09 11:44:44;;;;;;;1999.90;999.90;;;16.00;97.10;;;;;;5012801;28;20422;-72
2023/04/09 11:47:12;;;;;;;1999.90;999.90;;;16.40;98.30;;;;;;5012929;28;20528;-72
2023/04/09 11:49:37;;;;;;;1999.90;999.90;;;16.80;83.90;;;;;;5012984;28;20430;-71
2023/04/09 11:52:03;;;;;;;1999.90;999.90;;;17.20;82.30;;;;;;5012627;28;21081;-70
2023/04/09 11:54:33;;;;;;;1999.90;999.90;;;17.70;78.30;;;;;;5012761;28;20191;-72
2023/04/09 11:57:00;;;;;;;1999.90;999.90;;;18.10;80.70;;;;;;5012785;28;20467;-72
2023/04/09 11:59:26;;;;;;;1999.90;999.90;;;18.60;73.90;;;;;;5012693;28;20414;-72
2023/04/09 12:01:52;;;;;;;1999.90;999.90;;;19.40;76.90;;;;;;5012740;28;20822;-72
2023/04/09 12:04:20;;;;;;;1999.90;999.90;;;19.70;54.30;;;;;;5012684;28;20413;-71
2023/04/09 12:06:47;;;;;;;1999.90;999.90;;;19.90;50.10;;;;;;5012503;28;20169;-71
2023/04/09 12:09:13;;;;;;;1999.90;999.90;;;19.80;40.20;;;;;;5012633;28;20409;-72